KCMI/CMI METAR and TAF weather

Enter ICAO airport designator
Station Type Date Time Source
KCMI METAR 2020/12/05 05:53 UTC NOAA

KCMI 050553Z AUTO 01005KT 10SM CLR M01/M03 A3005 RMK AO2 SLP182 T10061028 10028 21028 400941028 51010


Station Type Date Time Source
KCMI Decoded METAR 2020/12/05 05:53 UTC NOAA

UNIV OF ILLINOIS-WILLARD, IL, United States (KCMI) 40-02N 088-16W 228M
Dec 05, 2020 - 12:53 AM EST / 2020.12.05 0553 UTC
Wind: from the N (010 degrees) at 6 MPH (5 KT):0
Visibility: 10 mile(s):0
Sky conditions: clear
Temperature: 30.9 F (-0.6 C)
Windchill: 24 F (-4 C):1
Dew Point: 27.0 F (-2.8 C)
Relative Humidity: 85%
Pressure (altimeter): 30.05 in. Hg (1017 hPa)
Pressure tendency: 0.03 inches (1.0 hPa) higher than three hours ago
ob: KCMI 050553Z AUTO 01005KT 10SM CLR M01/M03 A3005 RMK AO2 SLP182 T10061028 10028 21028 400941028 51010
cycle: 6

Station Type Date Time Source
KCMI TAF 2020/12/05 06:40 UTC NOAA

TAF KCMI 050538Z 0506/0606 35005KT P6SM SKC
FM051100 36004KT 3SM BR BKN025
FM051500 VRB03KT P6SM SCT025
FM060300 VRB03KT P6SM SCT250

Example: see airport list